createdAt,value
2023-02-06T00:00:55.273Z,102499.09
2023-02-06T00:03:57.176Z,102512.81
2023-02-06T00:06:59.038Z,102513.28
2023-02-06T00:10:00.893Z,102521.13
2023-02-06T00:13:02.916Z,102524.34
2023-02-06T00:16:05.150Z,102520.12
2023-02-06T00:19:07.160Z,102538.66
2023-02-06T00:22:10.335Z,102536.03
2023-02-06T00:25:12.200Z,102542.72
2023-02-06T00:28:14.172Z,102554.31
2023-02-06T00:31:17.353Z,102546.34
2023-02-06T00:34:19.420Z,102564.19
2023-02-06T00:37:21.219Z,102560.97
2023-02-06T00:40:23.081Z,102564.78
2023-02-06T00:43:25.272Z,102561.00
2023-02-06T00:46:27.185Z,102567.84
2023-02-06T00:49:29.091Z,102567.28
2023-02-06T00:52:31.147Z,102564.69
2023-02-06T00:55:33.353Z,102553.62
2023-02-06T00:58:35.355Z,102547.09
2023-02-06T01:01:37.295Z,102552.03
2023-02-06T01:04:39.160Z,102542.91
2023-02-06T01:07:42.528Z,102545.53
2023-02-06T01:10:44.484Z,102537.16
2023-02-06T01:13:46.529Z,102551.59
2023-02-06T01:16:48.464Z,102556.00
2023-02-06T01:19:50.612Z,102555.56
2023-02-06T01:22:52.564Z,102552.53
2023-02-06T01:25:54.586Z,102550.56
2023-02-06T01:28:56.536Z,102554.69
2023-02-06T01:31:58.607Z,102566.25
2023-02-06T01:35:00.454Z,102565.75
2023-02-06T01:38:02.376Z,102565.59
2023-02-06T01:41:04.528Z,102571.38
2023-02-06T01:44:24.951Z,102561.84
2023-02-06T01:47:28.537Z,102563.00
2023-02-06T01:50:30.644Z,102558.44
2023-02-06T01:53:32.622Z,102549.09
2023-02-06T01:56:40.242Z,102555.22
2023-02-06T01:59:42.669Z,102561.03
2023-02-06T02:02:45.371Z,102549.38
2023-02-06T02:05:47.248Z,102545.34
2023-02-06T02:08:49.589Z,102546.56
2023-02-06T02:11:51.443Z,102545.63
2023-02-06T02:14:53.464Z,102543.38
2023-02-06T02:17:57.771Z,102530.25
2023-02-06T02:21:18.330Z,102531.81
2023-02-06T02:24:25.813Z,102529.81
2023-02-06T02:27:45.114Z,102525.41
2023-02-06T02:30:51.618Z,102515.16
2023-02-06T02:33:53.527Z,102529.31
2023-02-06T02:36:57.675Z,102529.97
2023-02-06T02:40:00.970Z,102526.28
2023-02-06T02:43:12.894Z,102548.34
2023-02-06T02:46:20.201Z,102543.66
2023-02-06T02:49:23.639Z,102538.09
2023-02-06T02:52:25.496Z,102540.03
2023-02-06T02:55:27.776Z,102543.72
2023-02-06T02:58:30.927Z,102542.63
2023-02-06T03:01:34.122Z,102553.22
2023-02-06T03:04:49.233Z,102553.66
2023-02-06T03:08:09.935Z,102557.12
2023-02-06T03:11:18.486Z,102552.63
2023-02-06T03:14:22.234Z,102557.44
2023-02-06T03:17:32.450Z,102555.06
2023-02-06T03:20:34.374Z,102555.13
2023-02-06T03:23:38.122Z,102550.38
2023-02-06T03:26:39.974Z,102557.16
2023-02-06T03:29:41.891Z,102557.06
2023-02-06T03:32:45.756Z,102563.47
2023-02-06T03:35:47.602Z,102542.50
2023-02-06T03:38:49.773Z,102558.28
2023-02-06T03:41:51.743Z,102559.37
2023-02-06T03:45:01.399Z,102554.41
2023-02-06T03:48:04.588Z,102553.16
2023-02-06T03:51:14.698Z,102563.53
2023-02-06T03:54:17.339Z,102567.56
2023-02-06T03:57:19.436Z,102565.34
2023-02-06T04:00:21.418Z,102560.50
2023-02-06T04:03:23.231Z,102559.44
2023-02-06T04:06:25.080Z,102567.81
2023-02-06T04:09:26.977Z,102570.78
2023-02-06T04:12:28.848Z,102555.78
2023-02-06T04:15:30.727Z,102550.25
2023-02-06T04:18:32.711Z,102555.56
2023-02-06T04:21:34.545Z,102549.34
2023-02-06T04:24:39.342Z,102549.78
2023-02-06T04:27:41.252Z,102554.16
2023-02-06T04:30:43.291Z,102555.53
2023-02-06T04:33:45.244Z,102559.31
2023-02-06T04:36:49.673Z,102555.72
2023-02-06T04:39:51.735Z,102561.25
2023-02-06T04:42:53.902Z,102566.41
2023-02-06T04:45:56.055Z,102561.63
2023-02-06T04:48:57.871Z,102560.06
2023-02-06T04:51:59.885Z,102570.03
2023-02-06T04:55:01.920Z,102567.56
2023-02-06T04:58:03.798Z,102570.22
2023-02-06T05:01:05.893Z,102583.13
2023-02-06T05:04:08.040Z,102556.44
2023-02-06T05:07:09.927Z,102563.59
2023-02-06T05:10:11.959Z,102572.37
2023-02-06T05:13:14.045Z,102579.72
2023-02-06T05:16:16.752Z,102579.72
2023-02-06T05:19:18.724Z,102585.03
2023-02-06T05:22:20.573Z,102562.28
2023-02-06T05:25:22.543Z,102576.78
2023-02-06T05:28:24.487Z,102571.84
2023-02-06T05:31:26.648Z,102571.28
2023-02-06T05:34:28.536Z,102576.19
2023-02-06T05:37:30.417Z,102567.81
2023-02-06T05:40:32.374Z,102563.28
2023-02-06T05:43:34.449Z,102584.19
2023-02-06T05:46:36.676Z,102581.47
2023-02-06T05:49:38.824Z,102589.09
2023-02-06T05:52:40.679Z,102592.72
2023-02-06T05:55:42.688Z,102581.12
2023-02-06T05:58:44.723Z,102586.34
2023-02-06T06:01:46.778Z,102584.06
2023-02-06T06:04:48.730Z,102577.59
2023-02-06T06:07:50.715Z,102577.66
2023-02-06T06:10:52.652Z,102582.97
2023-02-06T06:13:54.616Z,102586.97
2023-02-06T06:16:56.525Z,102584.12
2023-02-06T06:19:58.460Z,102579.41
2023-02-06T06:23:00.319Z,102578.47
2023-02-06T06:26:02.181Z,102579.69
2023-02-06T06:29:04.003Z,102575.63
2023-02-06T06:32:06.020Z,102570.53
2023-02-06T06:35:08.317Z,102571.19
2023-02-06T06:38:10.368Z,102572.84
2023-02-06T06:41:12.780Z,102566.28
2023-02-06T06:44:15.014Z,102566.25
2023-02-06T06:47:17.171Z,102557.69
2023-02-06T06:50:19.215Z,102571.72
2023-02-06T06:53:21.479Z,102574.94
2023-02-06T06:56:23.589Z,102563.81
2023-02-06T06:59:25.480Z,102567.97
2023-02-06T07:02:28.740Z,102568.81
2023-02-06T07:05:30.874Z,102573.50
2023-02-06T07:08:35.300Z,102565.03
2023-02-06T07:11:37.132Z,102577.22
2023-02-06T07:14:40.698Z,102563.09
2023-02-06T07:17:42.796Z,102572.63
2023-02-06T07:20:45.038Z,102562.19
2023-02-06T07:23:47.246Z,102567.47
2023-02-06T07:26:51.792Z,102559.69
2023-02-06T07:29:53.654Z,102586.53
2023-02-06T07:32:55.638Z,102591.00
2023-02-06T07:35:58.119Z,102588.94
2023-02-06T07:39:01.983Z,102581.69
2023-02-06T07:42:04.535Z,102590.81
2023-02-06T07:45:06.615Z,102584.53
2023-02-06T07:48:08.629Z,102591.41
2023-02-06T07:51:10.542Z,102585.41
2023-02-06T07:54:12.766Z,102592.22
2023-02-06T07:57:14.873Z,102582.78
2023-02-06T08:00:17.106Z,102579.81
2023-02-06T08:03:20.962Z,102585.22
2023-02-06T08:06:24.457Z,102582.25
2023-02-06T08:09:26.398Z,102590.62
2023-02-06T08:12:31.900Z,102581.19
2023-02-06T08:15:34.234Z,102583.00
2023-02-06T08:18:36.450Z,102582.56
2023-02-06T08:21:38.717Z,102579.84
2023-02-06T08:24:40.555Z,102568.63
2023-02-06T08:27:42.538Z,102580.28
2023-02-06T08:30:45.060Z,102589.16
2023-02-06T08:33:47.832Z,102588.38
2023-02-06T08:36:49.817Z,102580.41
2023-02-06T08:39:51.702Z,102580.78
2023-02-06T08:42:53.721Z,102582.69
2023-02-06T08:45:59.533Z,102583.53
2023-02-06T08:49:02.649Z,102585.69
2023-02-06T08:52:04.651Z,102582.25
2023-02-06T08:55:06.773Z,102576.00
2023-02-06T08:58:09.299Z,102561.09
2023-02-06T09:01:14.373Z,102557.91
2023-02-06T09:04:16.295Z,102565.25
2023-02-06T09:07:18.300Z,102562.59
2023-02-06T09:10:27.429Z,102559.56
2023-02-06T09:13:31.141Z,102560.09
2023-02-06T09:16:33.740Z,102555.47
2023-02-06T09:19:35.582Z,102568.78
2023-02-06T09:22:37.628Z,102571.53
2023-02-06T09:25:39.867Z,102575.63
2023-02-06T09:28:42.341Z,102567.09
2023-02-06T09:31:45.225Z,102554.75
2023-02-06T09:34:48.429Z,102564.44
2023-02-06T09:37:51.066Z,102576.03
2023-02-06T09:40:53.491Z,102567.31
2023-02-06T09:44:04.350Z,102562.50
2023-02-06T09:47:10.420Z,102564.09
2023-02-06T09:50:18.825Z,102566.81
2023-02-06T09:53:30.544Z,102559.41
2023-02-06T09:56:52.827Z,102558.66
2023-02-06T09:59:56.771Z,102540.66
2023-02-06T10:03:12.532Z,102555.03
2023-02-06T10:06:16.352Z,102546.53
2023-02-06T10:09:22.515Z,102546.75
2023-02-06T10:12:31.516Z,102545.03
2023-02-06T10:15:35.739Z,102542.97
2023-02-06T10:18:54.270Z,102536.50
2023-02-06T10:22:01.757Z,102535.22
2023-02-06T10:25:21.205Z,102522.56
2023-02-06T10:28:27.671Z,102521.00
2023-02-06T10:31:29.763Z,102520.94
2023-02-06T10:34:38.077Z,102517.81
2023-02-06T10:37:58.472Z,102506.41
2023-02-06T10:41:12.934Z,102502.34
2023-02-06T10:44:25.376Z,102503.66
2023-02-06T10:47:39.673Z,102499.38
2023-02-06T10:50:47.867Z,102488.41
2023-02-06T10:54:13.275Z,102477.59
2023-02-06T10:57:19.134Z,102490.03
2023-02-06T11:00:25.342Z,102497.59
2023-02-06T11:03:30.565Z,102479.94
2023-02-06T11:06:32.472Z,102479.47
2023-02-06T11:09:34.539Z,102482.72
2023-02-06T11:12:38.332Z,102476.19
2023-02-06T11:15:46.159Z,102480.50
2023-02-06T11:18:48.887Z,102466.31
2023-02-06T11:21:54.937Z,102465.84
2023-02-06T11:25:01.447Z,102470.53
2023-02-06T11:28:03.514Z,102463.72
2023-02-06T11:31:06.423Z,102467.63
2023-02-06T11:34:18.200Z,102455.97
2023-02-06T11:37:39.413Z,102451.97
2023-02-06T11:40:41.556Z,102427.03
2023-02-06T11:43:43.987Z,102449.38
2023-02-06T11:46:45.946Z,102437.16
2023-02-06T11:49:48.079Z,102412.50
2023-02-06T11:52:52.418Z,102428.38
2023-02-06T11:55:59.141Z,102433.00
2023-02-06T11:59:16.763Z,102420.34
2023-02-06T12:02:25.706Z,102417.03
2023-02-06T12:05:29.172Z,102414.78
2023-02-06T12:08:36.973Z,102396.28
2023-02-06T12:11:57.700Z,102385.91
2023-02-06T12:15:23.564Z,102389.44
2023-02-06T12:18:36.828Z,102393.56
2023-02-06T12:21:43.049Z,102407.13
2023-02-06T12:24:45.825Z,102401.47
2023-02-06T12:27:47.894Z,102389.63
2023-02-06T12:30:57.232Z,102393.41
2023-02-06T12:34:01.671Z,102394.72
2023-02-06T12:37:15.694Z,102391.25
2023-02-06T12:40:26.550Z,102389.19
2023-02-06T12:43:28.970Z,102391.88
2023-02-06T12:46:31.275Z,102386.53
2023-02-06T12:49:35.916Z,102384.44
2023-02-06T12:52:42.220Z,102388.88
2023-02-06T12:55:44.500Z,102378.44
2023-02-06T12:58:51.782Z,102359.69
2023-02-06T13:02:00.777Z,102366.47
2023-02-06T13:05:05.916Z,102365.25
2023-02-06T13:08:10.117Z,102367.16
2023-02-06T13:11:17.967Z,102378.91
2023-02-06T13:14:30.628Z,102352.41
2023-02-06T13:17:32.421Z,102373.69
2023-02-06T13:20:34.594Z,102377.66
2023-02-06T13:23:36.563Z,102374.78
2023-02-06T13:26:51.731Z,102363.66
2023-02-06T13:29:56.755Z,102377.44
2023-02-06T13:32:59.871Z,102374.69
2023-02-06T13:36:06.749Z,102353.50
2023-02-06T13:39:25.690Z,102359.16
2023-02-06T13:42:29.924Z,102364.91
2023-02-06T13:45:37.011Z,102374.44
2023-02-06T13:48:46.714Z,102365.81
2023-02-06T13:51:50.351Z,102353.69
2023-02-06T13:54:52.365Z,102359.06
2023-02-06T13:58:13.174Z,102349.06
2023-02-06T14:01:20.264Z,102383.34
2023-02-06T14:04:25.146Z,102378.78
2023-02-06T14:07:42.606Z,102385.97
2023-02-06T14:10:56.812Z,102401.16
2023-02-06T14:14:14.863Z,102407.66
2023-02-06T14:17:25.884Z,102410.59
2023-02-06T14:20:46.679Z,102401.88
2023-02-06T14:23:59.745Z,102415.38
2023-02-06T14:27:14.311Z,102408.97
2023-02-06T14:30:22.405Z,102408.94
2023-02-06T14:33:35.270Z,102402.63
2023-02-06T14:37:06.599Z,102407.13
2023-02-06T14:40:34.862Z,102409.37
2023-02-06T14:43:37.427Z,102418.91
2023-02-06T14:46:39.933Z,102420.72
2023-02-06T14:49:41.832Z,102420.25
2023-02-06T14:52:44.042Z,102413.19
2023-02-06T14:55:47.108Z,102414.59
2023-02-06T14:58:49.424Z,102413.72
2023-02-06T15:01:52.010Z,102422.38
2023-02-06T15:04:54.191Z,102426.75
2023-02-06T15:07:57.418Z,102435.12
2023-02-06T15:11:03.522Z,102431.00
2023-02-06T15:14:06.786Z,102436.78
2023-02-06T15:17:17.739Z,102450.37
2023-02-06T15:20:22.860Z,102456.47
2023-02-06T15:23:48.575Z,102454.28
2023-02-06T15:27:26.130Z,102462.06
2023-02-06T15:30:28.134Z,102455.69
2023-02-06T15:33:33.349Z,102457.53
2023-02-06T15:36:37.857Z,102461.47
2023-02-06T15:39:40.507Z,102453.09
2023-02-06T15:42:42.635Z,102459.19
2023-02-06T15:45:44.855Z,102465.38
2023-02-06T15:48:47.068Z,102450.97
2023-02-06T15:51:51.755Z,102465.16
2023-02-06T15:54:57.862Z,102461.50
2023-02-06T15:58:00.595Z,102463.47
2023-02-06T16:01:02.768Z,102465.75
2023-02-06T16:04:06.399Z,102474.22
2023-02-06T16:07:13.084Z,102478.41
2023-02-06T16:10:22.925Z,102482.16
2023-02-06T16:13:25.478Z,102484.63
2023-02-06T16:16:27.801Z,102499.72
2023-02-06T16:19:38.119Z,102492.03
2023-02-06T16:22:40.301Z,102492.72
2023-02-06T16:25:42.328Z,102505.75
2023-02-06T16:29:00.238Z,102510.50
2023-02-06T16:32:19.544Z,102506.94
2023-02-06T16:35:21.864Z,102508.06
2023-02-06T16:38:24.063Z,102503.81
2023-02-06T16:41:27.319Z,102503.75
2023-02-06T16:44:43.783Z,102514.22
2023-02-06T16:47:47.097Z,102514.72
2023-02-06T16:50:49.116Z,102511.47
2023-02-06T16:53:51.298Z,102505.72
2023-02-06T16:56:53.529Z,102514.16
2023-02-06T16:59:55.637Z,102519.03
2023-02-06T17:02:57.668Z,102524.16
2023-02-06T17:05:59.830Z,102515.66
2023-02-06T17:09:04.431Z,102514.91
2023-02-06T17:12:06.765Z,102520.38
2023-02-06T17:15:10.303Z,102529.47
2023-02-06T17:18:12.888Z,102530.91
2023-02-06T17:21:16.986Z,102524.72
2023-02-06T17:24:19.225Z,102518.91
2023-02-06T17:27:21.835Z,102523.28
2023-02-06T17:30:24.238Z,102514.03
2023-02-06T17:33:26.386Z,102522.69
2023-02-06T17:36:33.241Z,102519.88
2023-02-06T17:39:35.809Z,102518.37
2023-02-06T17:42:37.722Z,102523.81
2023-02-06T17:45:39.901Z,102532.75
2023-02-06T17:48:43.701Z,102529.41
2023-02-06T17:51:45.828Z,102532.88
2023-02-06T17:54:47.978Z,102540.59
2023-02-06T17:57:50.520Z,102528.16
2023-02-06T18:00:52.408Z,102530.28
2023-02-06T18:03:54.768Z,102535.22
2023-02-06T18:06:56.660Z,102537.91
2023-02-06T18:09:58.664Z,102544.16
2023-02-06T18:13:00.595Z,102553.31
2023-02-06T18:16:02.695Z,102548.28
2023-02-06T18:19:04.803Z,102552.84
2023-02-06T18:22:06.709Z,102564.31
2023-02-06T18:25:10.202Z,102561.44
2023-02-06T18:28:14.056Z,102556.09
2023-02-06T18:31:23.938Z,102563.94
2023-02-06T18:34:25.966Z,102554.06
2023-02-06T18:37:27.961Z,102553.56
2023-02-06T18:40:29.871Z,102566.56
2023-02-06T18:43:31.993Z,102557.59
2023-02-06T18:46:34.073Z,102557.78
2023-02-06T18:49:36.200Z,102567.84
2023-02-06T18:52:40.055Z,102565.50
2023-02-06T18:55:42.859Z,102567.50
2023-02-06T18:58:44.915Z,102562.84
2023-02-06T19:01:47.460Z,102570.62
2023-02-06T19:04:49.480Z,102566.56
2023-02-06T19:07:53.067Z,102575.50
2023-02-06T19:10:56.686Z,102591.19
2023-02-06T19:13:58.726Z,102584.44
2023-02-06T19:17:00.818Z,102590.91
2023-02-06T19:20:02.913Z,102587.19
2023-02-06T19:23:04.841Z,102586.13
2023-02-06T19:26:07.501Z,102601.34
2023-02-06T19:29:09.574Z,102597.47
2023-02-06T19:32:11.640Z,102612.13
2023-02-06T19:35:14.740Z,102603.56
2023-02-06T19:38:16.643Z,102617.31
2023-02-06T19:41:23.884Z,102615.66
2023-02-06T19:44:27.160Z,102606.41
2023-02-06T19:47:29.052Z,102629.87
2023-02-06T19:50:31.096Z,102638.94
2023-02-06T19:53:34.336Z,102628.78
2023-02-06T19:56:40.440Z,102630.81
2023-02-06T19:59:42.527Z,102635.88
2023-02-06T20:02:44.704Z,102644.31
2023-02-06T20:05:46.598Z,102632.97
2023-02-06T20:08:48.816Z,102640.28
2023-02-06T20:11:50.777Z,102634.22
2023-02-06T20:14:52.710Z,102651.41
2023-02-06T20:17:54.899Z,102644.75
2023-02-06T20:20:56.805Z,102648.84
2023-02-06T20:24:00.543Z,102654.72
2023-02-06T20:27:03.419Z,102661.88
2023-02-06T20:30:05.558Z,102656.50
2023-02-06T20:33:07.435Z,102658.00
2023-02-06T20:36:10.553Z,102660.66
2023-02-06T20:39:13.016Z,102657.50
2023-02-06T20:42:15.767Z,102664.09
2023-02-06T20:45:18.085Z,102660.03
2023-02-06T20:48:19.950Z,102687.78
2023-02-06T20:51:21.893Z,102682.59
2023-02-06T20:54:24.039Z,102674.75
2023-02-06T20:57:26.020Z,102675.19
2023-02-06T21:00:28.162Z,102673.63
2023-02-06T21:03:30.565Z,102680.09
2023-02-06T21:06:33.550Z,102672.53
2023-02-06T21:09:35.467Z,102689.59
2023-02-06T21:12:37.512Z,102696.84
2023-02-06T21:15:39.600Z,102698.88
2023-02-06T21:18:42.858Z,102693.09
2023-02-06T21:21:46.311Z,102701.19
2023-02-06T21:24:48.551Z,102701.63
2023-02-06T21:27:50.425Z,102696.16
2023-02-06T21:30:52.344Z,102698.78
2023-02-06T21:33:54.274Z,102700.94
2023-02-06T21:36:56.178Z,102701.47
2023-02-06T21:39:58.457Z,102694.00
2023-02-06T21:43:00.685Z,102700.47
2023-02-06T21:46:03.078Z,102705.03
2023-02-06T21:49:06.490Z,102698.09
2023-02-06T21:52:08.368Z,102693.12
2023-02-06T21:55:10.300Z,102707.63
2023-02-06T21:58:14.924Z,102706.19
2023-02-06T22:01:21.801Z,102704.91
2023-02-06T22:04:23.834Z,102693.78
2023-02-06T22:07:25.787Z,102698.66
2023-02-06T22:10:27.915Z,102701.00
2023-02-06T22:13:29.829Z,102704.13
2023-02-06T22:16:31.865Z,102714.72
2023-02-06T22:19:35.015Z,102706.66
2023-02-06T22:22:38.706Z,102716.97
2023-02-06T22:25:45.977Z,102724.19
2023-02-06T22:28:48.073Z,102715.59
2023-02-06T22:31:50.050Z,102718.56
2023-02-06T22:34:53.829Z,102711.66
2023-02-06T22:37:56.364Z,102715.66
2023-02-06T22:41:02.280Z,102715.59
2023-02-06T22:44:04.203Z,102708.16
2023-02-06T22:47:06.066Z,102706.25
2023-02-06T22:50:08.136Z,102710.91
2023-02-06T22:53:29.500Z,102720.41
2023-02-06T22:56:35.189Z,102712.03
2023-02-06T22:59:37.116Z,102723.12
2023-02-06T23:02:39.020Z,102726.22
2023-02-06T23:05:41.020Z,102726.88
2023-02-06T23:08:43.903Z,102735.47
2023-02-06T23:11:46.078Z,102725.69
2023-02-06T23:14:48.203Z,102731.66
2023-02-06T23:17:50.179Z,102722.41
2023-02-06T23:21:02.659Z,102732.25
2023-02-06T23:24:05.199Z,102737.72
2023-02-06T23:27:07.086Z,102740.53
2023-02-06T23:30:09.513Z,102740.22
2023-02-06T23:33:11.451Z,102741.87
2023-02-06T23:36:15.200Z,102753.75
2023-02-06T23:39:17.163Z,102733.16
2023-02-06T23:42:19.265Z,102742.75
2023-02-06T23:45:21.245Z,102736.06
2023-02-06T23:48:23.246Z,102735.91
2023-02-06T23:51:25.390Z,102731.19
2023-02-06T23:54:27.283Z,102719.06
2023-02-06T23:57:29.119Z,102728.13
